KFRG

Republic Airport

ICAO Code KFRG
IATA Code
Name Republic Airport
Location Farmingdale, New-York, US
Elevation 82 Feet / 25 Meters
Latitude 40.72880173
Longitude -73.41339874
METAR KFRG 240553Z AUTO 00000KT 6SM BR BKN050 BKN060 OVC080 M01/M03 A2979 RMK AO2 SLP089 60000 T10061028 10017 21011 58007
Extra information Display Charts and CFS
Display NOTAMS
Runway Length Width Surface Elevation
01 5516 ft 150 ft ASP 63 ft
14 6827 ft 150 ft ASP 78 ft
19 5516 ft 150 ft ASP 79 ft
32 6827 ft 150 ft ASP 63 ft